Time;durP1;ratioP1;P1;durP2;ratioP2;P2;SDS_P1;SDS_P2;PMS_P1;PMS_P2;Temp;Humidity;BMP_temperature;BMP_pressure;BME280_temperature;BME280_humidity;BME280_pressure;Samples;Min_cycle;Max_cycle;Signal;HPM_P1;HPM_P2
2022/01/27 00:05:08;;;;;;;;;;;5.30;99.90;;;;;;5034296;28;20375;-75
2022/01/27 00:07:33;;;;;;;;;;;3.50;99.90;;;;;;5034199;28;19979;-75
2022/01/27 00:12:43;;;;;;;;;;;6.70;99.90;;;;;;5034051;28;19955;-76
2022/01/27 00:15:11;;;;;;;;;;;5.30;99.90;;;;;;5017755;28;19921;-73
2022/01/27 00:17:44;;;;;;;;;;;5.30;99.90;;;;;;5033983;28;19921;-75
2022/01/27 00:20:11;;;;;;;;;;;5.30;99.90;;;;;;5033901;28;20453;-75
2022/01/27 00:22:36;;;;;;;;;;;5.30;99.90;;;;;;5033850;28;19929;-73
2022/01/27 00:25:04;;;;;;;;;;;5.70;99.90;;;;;;5017500;28;20020;-75
2022/01/27 00:27:30;;;;;;;;;;;5.30;99.90;;;;;;5033923;28;19924;-74
2022/01/27 00:29:56;;;;;;;;;;;5.30;99.90;;;;;;5043341;28;20054;-75
2022/01/27 00:32:22;;;;;;;;;;;5.70;99.90;;;;;;5055793;28;19927;-75
2022/01/27 00:34:47;;;;;;;;;;;5.60;99.90;;;;;;5055783;28;19928;-74
2022/01/27 00:37:13;;;;;;;;;;;5.30;99.90;;;;;;5055671;28;20017;-73
2022/01/27 00:39:38;;;;;;;;;;;5.30;99.90;;;;;;5055455;28;20013;-73
2022/01/27 00:42:04;;;;;;;;;;;5.30;99.90;;;;;;5055812;28;19920;-75
2022/01/27 00:44:30;;;;;;;;;;;4.90;99.90;;;;;;5054461;28;19967;-74
2022/01/27 00:46:55;;;;;;;;;;;5.20;99.90;;;;;;5055702;28;20476;-77
2022/01/27 00:49:21;;;;;;;;;;;5.20;99.90;;;;;;5054356;28;19921;-74
2022/01/27 00:51:47;;;;;;;;;;;5.20;99.90;;;;;;5055498;28;19927;-75
2022/01/27 00:54:25;;;;;;;;;;;5.20;99.90;;;;;;5055247;28;19921;-76
2022/01/27 00:56:57;;;;;;;;;;;5.20;99.90;;;;;;5055512;28;19927;-73
2022/01/27 00:59:51;;;;;;;;;;;6.50;99.90;;;;;;5055237;28;20372;-74
2022/01/27 01:02:38;;;;;;;;;;;5.40;99.90;;;;;;5055277;28;20269;-76
2022/01/27 01:07:38;;;;;;;;;;;5.20;99.90;;;;;;5069291;28;19967;-75
2022/01/27 01:10:49;;;;;;;;;;;;;;;;;;;;;
2022/01/27 01:15:17;;;;;;;;;;;5.20;99.90;;;;;;5055119;28;19972;-73
2022/01/27 01:20:43;;;;;;;;;;;5.60;99.90;;;;;;5055013;28;19921;-76
2022/01/27 01:36:43;;;;;;;;;;;6.70;99.90;;;;;;5054484;28;19998;-76
2022/01/27 01:39:08;;;;;;;;;;;5.30;99.90;;;;;;5054661;28;19921;-73
2022/01/27 01:41:34;;;;;;;;;;;5.70;99.90;;;;;;5054133;28;20257;-75
2022/01/27 01:43:59;;;;;;;;;;;6.30;99.90;;;;;;5054271;28;19966;-74
2022/01/27 01:46:25;;;;;;;;;;;5.20;99.90;;;;;;5054447;28;20022;-76
2022/01/27 01:48:51;;;;;;;;;;;5.20;99.90;;;;;;5054332;28;20296;-76
2022/01/27 01:51:21;;;;;;;;;;;5.20;99.90;;;;;;5053336;28;19963;-74
2022/01/27 01:53:47;;;;;;;;;;;6.40;99.90;;;;;;5054251;28;19928;-74
2022/01/27 01:56:12;;;;;;;;;;;5.20;99.90;;;;;;5054452;28;19921;-75
2022/01/27 01:58:38;;;;;;;;;;;6.00;99.90;;;;;;5054154;28;19924;-76
2022/01/27 02:01:03;;;;;;;;;;;5.20;99.90;;;;;;5069635;28;19924;-75
2022/01/27 02:03:29;;;;;;;;;;;6.60;99.90;;;;;;5054159;28;19927;-73
2022/01/27 02:05:56;;;;;;;;;;;5.20;99.90;;;;;;5053969;28;19925;-73
2022/01/27 02:19:15;;;;;;;;;;;5.30;99.90;;;;;;5053414;28;20462;-74
2022/01/27 02:21:52;;;;;;;;;;;6.90;99.90;;;;;;5053955;28;19921;-73
2022/01/27 02:24:19;;;;;;;;;;;5.30;99.90;;;;;;5053792;28;19921;-76
2022/01/27 02:26:47;;;;;;;;;;;5.40;99.90;;;;;;5053674;28;20314;-75
2022/01/27 02:29:13;;;;;;;;;;;5.30;99.90;;;;;;5053870;28;19973;-74
2022/01/27 02:31:39;;;;;;;;;;;6.30;99.90;;;;;;5052705;28;20291;-73
2022/01/27 02:34:05;;;;;;;;;;;5.30;99.90;;;;;;5053648;28;19921;-75
2022/01/27 02:36:31;;;;;;;;;;;5.30;99.90;;;;;;5053664;28;19921;-76
2022/01/27 02:38:57;;;;;;;;;;;5.10;99.90;;;;;;5053273;28;19962;-75
2022/01/27 02:41:26;;;;;;;;;;;5.40;99.90;;;;;;5053741;28;20435;-74
2022/01/27 02:43:52;;;;;;;;;;;5.30;99.90;;;;;;5053688;28;19921;-76
2022/01/27 02:46:21;;;;;;;;;;;5.30;99.90;;;;;;5053621;28;19982;-74
2022/01/27 02:48:47;;;;;;;;;;;5.30;99.90;;;;;;5053629;28;19924;-74
2022/01/27 02:51:13;;;;;;;;;;;5.40;99.90;;;;;;5052371;28;19924;-74
2022/01/27 02:53:38;;;;;;;;;;;6.00;99.90;;;;;;5051969;28;19920;-75
2022/01/27 02:56:04;;;;;;;;;;;5.30;99.90;;;;;;5053179;28;20371;-74
2022/01/27 02:58:30;;;;;;;;;;;5.30;99.90;;;;;;5053563;28;20308;-75
2022/01/27 03:00:55;;;;;;;;;;;5.70;99.90;;;;;;5052348;28;19928;-75
2022/01/27 03:03:21;;;;;;;;;;;6.20;99.90;;;;;;5053550;28;19921;-74
2022/01/27 03:05:46;;;;;;;;;;;6.80;99.90;;;;;;5053468;28;19920;-75
2022/01/27 03:08:12;;;;;;;;;;;5.80;99.90;;;;;;5053421;28;19924;-75
2022/01/27 03:10:39;;;;;;;;;;;6.70;99.90;;;;;;5052169;28;20287;-73
2022/01/27 03:13:05;;;;;;;;;;;5.40;99.90;;;;;;5052091;28;20383;-75
2022/01/27 03:15:30;;;;;;;;;;;6.00;99.90;;;;;;5053307;28;19927;-73
2022/01/27 03:17:56;;;;;;;;;;;5.30;99.90;;;;;;5053453;28;19927;-74
2022/01/27 03:20:22;;;;;;;;;;;7.10;99.90;;;;;;5052399;28;19928;-75
2022/01/27 03:22:47;;;;;;;;;;;5.30;99.90;;;;;;5053067;28;19927;-74
2022/01/27 03:25:13;;;;;;;;;;;5.80;99.90;;;;;;5053026;28;19931;-73
2022/01/27 03:27:45;;;;;;;;;;;6.00;99.90;;;;;;5053080;28;19921;-76
2022/01/27 03:30:11;;;;;;;;;;;5.30;99.90;;;;;;5053846;28;19924;-74
2022/01/27 03:32:37;;;;;;;;;;;5.30;99.90;;;;;;5057086;28;19974;-76
2022/01/27 03:35:02;;;;;;;;;;;5.30;99.90;;;;;;5057020;28;20372;-76
2022/01/27 03:37:28;;;;;;;;;;;3.60;99.90;;;;;;5056079;28;20280;-75
2022/01/27 03:39:53;;;;;;;;;;;5.60;99.90;;;;;;5056765;28;20390;-76
2022/01/27 03:42:19;;;;;;;;;;;6.80;99.90;;;;;;5055534;28;20326;-74
2022/01/27 03:44:45;;;;;;;;;;;5.30;99.90;;;;;;5055648;28;19950;-76
2022/01/27 03:47:10;;;;;;;;;;;4.40;99.90;;;;;;5056820;28;19921;-74
2022/01/27 03:49:36;;;;;;;;;;;6.50;99.90;;;;;;5056837;28;19927;-73
2022/01/27 03:52:02;;;;;;;;;;;5.30;99.90;;;;;;5056599;28;19920;-74
2022/01/27 03:54:30;;;;;;;;;;;5.10;99.90;;;;;;5056525;28;19967;-73
2022/01/27 03:56:56;;;;;;;;;;;6.00;99.90;;;;;;5055512;28;19920;-75
2022/01/27 03:59:21;;;;;;;;;;;5.20;99.90;;;;;;5056359;28;19928;-74
2022/01/27 04:01:47;;;;;;;;;;;5.40;99.90;;;;;;5056315;28;19982;-75
2022/01/27 04:04:14;;;;;;;;;;;6.90;99.90;;;;;;5056566;28;19925;-76
2022/01/27 04:06:40;;;;;;;;;;;5.20;99.90;;;;;;5056496;28;20019;-74
2022/01/27 04:09:07;;;;;;;;;;;5.20;99.90;;;;;;5056242;28;20295;-76
2022/01/27 04:11:33;;;;;;;;;;;5.20;99.90;;;;;;5055243;28;19921;-74
2022/01/27 04:13:59;;;;;;;;;;;5.20;99.90;;;;;;5054759;28;20398;-75
2022/01/27 04:16:24;;;;;;;;;;;5.60;99.90;;;;;;5056310;28;19920;-75
2022/01/27 04:18:50;;;;;;;;;;;5.20;99.90;;;;;;5056270;28;19920;-74
2022/01/27 04:21:17;;;;;;;;;;;5.20;99.90;;;;;;5056198;28;19921;-74
2022/01/27 04:23:42;;;;;;;;;;;7.10;99.90;;;;;;5054659;28;19921;-74
2022/01/27 04:26:09;;;;;;;;;;;6.40;99.90;;;;;;5055081;28;19921;-76
2022/01/27 04:28:37;;;;;;;;;;;7.00;99.90;;;;;;5055776;28;19921;-74
2022/01/27 04:31:05;;;;;;;;;;;6.00;99.90;;;;;;5056056;28;19920;-75
2022/01/27 04:33:33;;;;;;;;;;;5.70;99.90;;;;;;5055891;28;19924;-76
2022/01/27 04:36:02;;;;;;;;;;;5.30;99.90;;;;;;5055870;28;19925;-74
2022/01/27 04:38:35;;;;;;;;;;;5.30;99.90;;;;;;5055663;28;19921;-73
2022/01/27 04:48:35;;;;;;;;;;;5.90;99.90;;;;;;5055672;28;20384;-76
2022/01/27 04:51:06;;;;;;;;;;;5.60;99.90;;;;;;5054191;28;20365;-76
2022/01/27 04:53:44;;;;;;;;;;;5.30;99.90;;;;;;5054246;28;19924;-74
2022/01/27 04:56:13;;;;;;;;;;;5.30;99.90;;;;;;5054389;28;20394;-76
2022/01/27 04:58:44;;;;;;;;;;;5.20;99.90;;;;;;5055437;28;19924;-76
2022/01/27 05:01:13;;;;;;;;;;;5.80;99.90;;;;;;5055352;28;19925;-75
2022/01/27 05:03:47;;;;;;;;;;;5.30;99.90;;;;;;5054507;28;19921;-74
2022/01/27 05:06:12;;;;;;;;;;;5.20;99.90;;;;;;5055246;28;19920;-75
2022/01/27 05:08:38;;;;;;;;;;;6.30;99.90;;;;;;5055447;28;19928;-75
2022/01/27 05:11:13;;;;;;;;;;;6.10;99.90;;;;;;5054304;28;19971;-76
2022/01/27 05:13:52;;;;;;;;;;;5.50;99.90;;;;;;5055106;28;19921;-75
2022/01/27 05:16:18;;;;;;;;;;;7.10;99.90;;;;;;5068834;28;19920;-74
2022/01/27 05:18:43;;;;;;;;;;;7.10;99.90;;;;;;5054874;28;20375;-76
2022/01/27 05:21:09;;;;;;;;;;;5.30;99.90;;;;;;5054850;28;19931;-75
2022/01/27 05:23:35;;;;;;;;;;;5.30;99.90;;;;;;5055017;28;19928;-74
2022/01/27 05:26:00;;;;;;;;;;;6.60;99.90;;;;;;5054983;28;20435;-74
2022/01/27 05:28:26;;;;;;;;;;;6.10;99.90;;;;;;5054822;28;20276;-76
2022/01/27 05:30:51;;;;;;;;;;;5.30;99.90;;;;;;5054937;28;19920;-75
2022/01/27 05:33:17;;;;;;;;;;;5.30;99.90;;;;;;5054533;28;19971;-75
2022/01/27 05:35:46;;;;;;;;;;;5.30;99.90;;;;;;5054612;28;19933;-77
2022/01/27 05:38:12;;;;;;;;;;;5.20;99.90;;;;;;5054799;28;20364;-76
2022/01/27 05:40:38;;;;;;;;;;;5.20;99.90;;;;;;5054376;28;19920;-75
2022/01/27 05:43:03;;;;;;;;;;;5.40;99.90;;;;;;5054534;28;19925;-75
2022/01/27 05:45:29;;;;;;;;;;;5.10;99.90;;;;;;5054459;28;19928;-75
2022/01/27 05:47:55;;;;;;;;;;;5.10;99.90;;;;;;5054461;28;19928;-73
2022/01/27 05:50:20;;;;;;;;;;;6.50;99.90;;;;;;5054230;28;20356;-75
2022/01/27 05:52:46;;;;;;;;;;;5.00;99.90;;;;;;5052772;28;19921;-75
2022/01/27 05:55:11;;;;;;;;;;;5.00;99.90;;;;;;5053384;28;20010;-77
2022/01/27 05:57:37;;;;;;;;;;;5.00;99.90;;;;;;5054436;28;19967;-75
2022/01/27 06:00:03;;;;;;;;;;;5.00;99.90;;;;;;5054146;28;19927;-75
2022/01/27 06:02:29;;;;;;;;;;;5.00;99.90;;;;;;5036648;28;19920;-77
2022/01/27 06:04:54;;;;;;;;;;;5.40;99.90;;;;;;5054171;28;20338;-75
2022/01/27 06:07:20;;;;;;;;;;;4.70;99.90;;;;;;5054084;28;19921;-75
2022/01/27 06:09:45;;;;;;;;;;;6.70;99.90;;;;;;5054130;28;19964;-75
2022/01/27 06:12:11;;;;;;;;;;;5.50;99.90;;;;;;5053889;28;19927;-75
2022/01/27 06:14:36;;;;;;;;;;;5.00;99.90;;;;;;5054049;28;19927;-74
2022/01/27 06:17:02;;;;;;;;;;;5.00;99.90;;;;;;5054068;28;19921;-74
2022/01/27 06:19:28;;;;;;;;;;;5.00;99.90;;;;;;5053961;28;19921;-77
2022/01/27 06:21:54;;;;;;;;;;;5.00;99.90;;;;;;5052541;28;20449;-75
2022/01/27 06:24:20;;;;;;;;;;;5.90;99.90;;;;;;5053639;28;19921;-75
2022/01/27 06:26:45;;;;;;;;;;;5.00;99.90;;;;;;5053686;28;19920;-76
2022/01/27 06:29:11;;;;;;;;;;;5.00;99.90;;;;;;5053862;28;19921;-74
2022/01/27 06:31:36;;;;;;;;;;;5.20;99.90;;;;;;5053736;28;19983;-75
2022/01/27 06:34:02;;;;;;;;;;;5.00;99.90;;;;;;5053592;28;19921;-77
2022/01/27 06:36:28;;;;;;;;;;;6.30;99.90;;;;;;5052525;28;19935;-77
2022/01/27 06:38:53;;;;;;;;;;;3.80;99.90;;;;;;5053537;28;19920;-77
2022/01/27 06:41:19;;;;;;;;;;;5.10;99.90;;;;;;5053637;28;19920;-77
2022/01/27 06:43:44;;;;;;;;;;;6.20;99.90;;;;;;5053682;28;20359;-75
2022/01/27 06:46:10;;;;;;;;;;;4.50;99.90;;;;;;5053691;28;19925;-75
2022/01/27 06:48:35;;;;;;;;;;;6.10;99.90;;;;;;5053690;28;20380;-77
2022/01/27 06:51:04;;;;;;;;;;;6.30;99.90;;;;;;5053611;28;19921;-78
2022/01/27 06:53:30;;;;;;;;;;;5.20;99.90;;;;;;5053374;28;19920;-76
2022/01/27 06:55:55;;;;;;;;;;;5.50;99.90;;;;;;5053538;28;19946;-73
2022/01/27 06:58:21;;;;;;;;;;;6.80;99.90;;;;;;5053520;28;20292;-76
2022/01/27 07:00:47;;;;;;;;;;;5.20;99.90;;;;;;5052581;28;19927;-76
2022/01/27 07:03:13;;;;;;;;;;;6.40;99.90;;;;;;5053503;28;19921;-82
2022/01/27 07:05:39;;;;;;;;;;;6.70;99.90;;;;;;5056518;28;19971;-75
2022/01/27 07:08:05;;;;;;;;;;;6.10;99.90;;;;;;5057406;28;20039;-74
2022/01/27 07:10:31;;;;;;;;;;;4.00;99.90;;;;;;5057520;28;20394;-79
2022/01/27 07:12:56;;;;;;;;;;;6.00;99.90;;;;;;5057439;28;19968;-75
2022/01/27 07:15:22;;;;;;;;;;;6.10;99.90;;;;;;5057264;28;19920;-78
2022/01/27 07:17:47;;;;;;;;;;;7.00;99.90;;;;;;5057453;28;19921;-75
2022/01/27 07:20:13;;;;;;;;;;;7.00;99.90;;;;;;5056231;28;19932;-75
2022/01/27 07:22:39;;;;;;;;;;;5.50;99.90;;;;;;5057061;28;19920;-80
2022/01/27 07:25:05;;;;;;;;;;;7.30;99.90;;;;;;5056952;28;20011;-76
2022/01/27 07:27:32;;;;;;;;;;;5.50;99.90;;;;;;5055965;28;20372;-75
2022/01/27 07:29:57;;;;;;;;;;;6.50;99.90;;;;;;5056878;28;19920;-79
2022/01/27 07:32:23;;;;;;;;;;;5.60;99.90;;;;;;5056946;28;19928;-77
2022/01/27 07:34:49;;;;;;;;;;;5.60;99.90;;;;;;5056995;28;20380;-76
2022/01/27 07:37:14;;;;;;;;;;;7.60;99.90;;;;;;5055685;28;20360;-75
2022/01/27 07:39:40;;;;;;;;;;;5.70;99.90;;;;;;5056641;28;20368;-76
2022/01/27 07:42:06;;;;;;;;;;;5.70;99.90;;;;;;5057076;28;19921;-75
2022/01/27 07:44:31;;;;;;;;;;;5.70;99.90;;;;;;5056859;28;20269;-75
2022/01/27 07:46:57;;;;;;;;;;;5.70;99.90;;;;;;5056811;28;20367;-76
2022/01/27 07:49:23;;;;;;;;;;;7.00;99.90;;;;;;5056775;28;19932;-76
2022/01/27 07:51:48;;;;;;;;;;;5.80;99.90;;;;;;5056588;28;19953;-79
2022/01/27 07:54:14;;;;;;;;;;;6.10;99.90;;;;;;5056350;28;19925;-75
2022/01/27 07:56:39;;;;;;;;;;;6.70;99.90;;;;;;5056566;28;19920;-75
2022/01/27 07:59:05;;;;;;;;;;;5.80;99.90;;;;;;5056429;28;20017;-77
2022/01/27 08:01:31;;;;;;;;;;;5.80;99.90;;;;;;5056522;28;19920;-75
2022/01/27 08:03:56;;;;;;;;;;;7.50;99.90;;;;;;5056448;28;20447;-75
2022/01/27 08:06:22;;;;;;;;;;;5.90;99.90;;;;;;5056025;28;19974;-76
2022/01/27 08:09:03;;;;;;;;;;;6.30;99.90;;;;;;5056172;28;19931;-76
2022/01/27 08:11:28;;;;;;;;;;;5.90;99.90;;;;;;5056474;28;20333;-74
2022/01/27 08:13:54;;;;;;;;;;;7.30;99.90;;;;;;5056281;28;20023;-75
2022/01/27 08:16:19;;;;;;;;;;;6.00;99.90;;;;;;5055398;28;19966;-75
2022/01/27 08:18:45;;;;;;;;;;;6.00;99.90;;;;;;5055259;28;19928;-74
2022/01/27 08:21:10;;;;;;;;;;;6.00;99.90;;;;;;5055052;28;20019;-74
2022/01/27 08:23:38;;;;;;;;;;;4.40;99.90;;;;;;5055974;28;19962;-77
2022/01/27 08:26:12;;;;;;;;;;;7.00;99.90;;;;;;5055698;28;19924;-74
2022/01/27 08:28:56;;;;;;;;;;;8.00;99.90;;;;;;5056008;28;19921;-77
2022/01/27 08:31:22;;;;;;;;;;;7.90;99.90;;;;;;5054872;28;19966;-79
2022/01/27 08:33:48;;;;;;;;;;;6.20;99.90;;;;;;5055726;28;19968;-76
2022/01/27 08:36:14;;;;;;;;;;;7.70;99.90;;;;;;5054554;28;19975;-75
2022/01/27 08:38:44;;;;;;;;;;;6.20;99.90;;;;;;5055719;28;20035;-76
2022/01/27 08:41:10;;;;;;;;;;;6.30;99.90;;;;;;5055665;28;20405;-75
2022/01/27 08:43:35;;;;;;;;;;;6.30;99.90;;;;;;5055782;28;19976;-73
2022/01/27 08:46:01;;;;;;;;;;;6.60;99.90;;;;;;5055615;28;20390;-75
2022/01/27 08:48:28;;;;;;;;;;;6.30;99.90;;;;;;5054708;28;19970;-76
2022/01/27 08:50:59;;;;;;;;;;;6.40;99.90;;;;;;5054491;28;19932;-74
2022/01/27 08:53:26;;;;;;;;;;;7.50;99.90;;;;;;5055611;28;20001;-72
2022/01/27 08:55:52;;;;;;;;;;;6.50;99.90;;;;;;5054432;28;19921;-76
2022/01/27 08:58:17;;;;;;;;;;;6.60;99.90;;;;;;5055473;28;20031;-76
2022/01/27 09:00:43;;;;;;;;;;;7.10;99.90;;;;;;5054357;28;20022;-75
2022/01/27 09:03:09;;;;;;;;;;;7.50;99.90;;;;;;5054337;28;19920;-77
2022/01/27 09:05:35;;;;;;;;;;;6.70;99.90;;;;;;5055247;28;19920;-74
2022/01/27 09:08:00;;;;;;;;;;;6.70;99.90;;;;;;5055182;28;19924;-76
2022/01/27 09:10:32;;;;;;;;;;;8.10;99.90;;;;;;5055282;28;20327;-76
2022/01/27 09:12:58;;;;;;;;;;;6.70;99.90;;;;;;5037484;28;19924;-78
2022/01/27 09:15:24;;;;;;;;;;;6.70;99.90;;;;;;5055064;28;19924;-75
2022/01/27 09:17:49;;;;;;;;;;;7.30;99.90;;;;;;5054127;28;19920;-75
2022/01/27 09:20:16;;;;;;;;;;;6.80;99.90;;;;;;5054914;28;19920;-76
2022/01/27 09:22:42;;;;;;;;;;;7.10;99.90;;;;;;5054921;28;19951;-76
2022/01/27 09:25:21;;;;;;;;;;;6.90;99.90;;;;;;5054654;28;19920;-77
2022/01/27 09:27:48;;;;;;;;;;;6.90;99.90;;;;;;5053855;28;19928;-75
2022/01/27 09:30:15;;;;;;;;;;;7.00;99.90;;;;;;5054597;28;20418;-77
2022/01/27 09:32:41;;;;;;;;;;;7.00;99.90;;;;;;5054678;28;20018;-77
2022/01/27 09:35:07;;;;;;;;;;;7.00;99.90;;;;;;5054604;28;19927;-77
2022/01/27 09:37:33;;;;;;;;;;;7.00;99.90;;;;;;5054815;28;20367;-74
2022/01/27 09:39:58;;;;;;;;;;;7.10;99.90;;;;;;5054445;28;20253;-78
2022/01/27 09:42:27;;;;;;;;;;;7.70;99.90;;;;;;5054647;28;19925;-80
2022/01/27 09:44:53;;;;;;;;;;;8.30;99.90;;;;;;5053599;28;19972;-75
2022/01/27 09:47:19;;;;;;;;;;;7.50;99.90;;;;;;5054387;28;19921;-78
2022/01/27 09:50:04;;;;;;;;;;;7.30;99.90;;;;;;5111321;27;20300;-74
2022/01/27 09:52:30;;;;;;;;;;;7.30;99.90;;;;;;5111560;28;19931;-73
2022/01/27 09:54:55;;;;;;;;;;;7.30;99.90;;;;;;5110293;28;20380;-73
2022/01/27 09:57:21;;;;;;;;;;;7.40;99.90;;;;;;5111247;28;19932;-73
2022/01/27 09:59:47;;;;;;;;;;;7.40;99.90;;;;;;5111302;28;19924;-72
2022/01/27 10:02:21;;;;;;;;;;;7.40;99.90;;;;;;5111198;28;19931;-75
2022/01/27 10:04:47;;;;;;;;;;;7.40;99.90;;;;;;5111267;28;19924;-73
2022/01/27 10:07:14;;;;;;;;;;;7.40;99.90;;;;;;5110073;28;19924;-74
2022/01/27 10:09:54;;;;;;;;;;;7.40;99.90;;;;;;5110978;28;20395;-71
2022/01/27 10:12:23;;;;;;;;;;;8.00;99.90;;;;;;5110987;28;19928;-74
2022/01/27 10:14:56;;;;;;;;;;;7.60;99.90;;;;;;5110808;28;20023;-73
2022/01/27 10:17:21;;;;;;;;;;;7.40;99.90;;;;;;5109589;28;19931;-72
2022/01/27 10:19:52;;;;;;;;;;;7.50;99.90;;;;;;5110986;28;19924;-71
2022/01/27 10:22:18;;;;;;;;;;;7.50;99.90;;;;;;5110941;28;19976;-77
2022/01/27 10:24:44;;;;;;;;;;;8.30;99.90;;;;;;5110735;28;19997;-81
2022/01/27 10:27:17;;;;;;;;;;;7.60;99.90;;;;;;5110628;28;19924;-73
2022/01/27 10:32:23;;;;;;;;;;;8.40;99.90;;;;;;5110779;28;19978;-74
2022/01/27 10:34:52;;;;;;;;;;;7.60;99.90;;;;;;5110697;28;19975;-74
2022/01/27 10:37:18;;;;;;;;;;;7.70;99.90;;;;;;5109669;28;19928;-74
2022/01/27 10:39:47;;;;;;;;;;;7.70;99.90;;;;;;5110346;28;20089;-75
2022/01/27 10:42:13;;;;;;;;;;;7.80;99.90;;;;;;5109396;28;19924;-73
2022/01/27 10:44:44;;;;;;;;;;;8.60;99.90;;;;;;5110230;28;19924;-73
2022/01/27 10:47:15;;;;;;;;;;;7.80;99.90;;;;;;5110441;28;20413;-76
2022/01/27 10:49:46;;;;;;;;;;;7.80;99.90;;;;;;5129109;27;19927;-73
2022/01/27 10:52:13;;;;;;;;;;;7.80;99.90;;;;;;5130775;27;20020;-77
2022/01/27 10:54:42;;;;;;;;;;;7.80;99.90;;;;;;5112574;28;19977;-73
2022/01/27 10:57:10;;;;;;;;;;;7.80;99.90;;;;;;5130398;27;19924;-73
2022/01/27 10:59:36;;;;;;;;;;;7.80;99.90;;;;;;5126283;28;19969;-73
2022/01/27 11:02:10;;;;;;;;;;;7.80;99.90;;;;;;5117053;28;19924;-77
2022/01/27 11:04:37;;;;;;;;;;;7.80;99.90;;;;;;5116751;28;20460;-76
2022/01/27 11:07:05;;;;;;;;;;;7.90;99.90;;;;;;5098805;28;19931;-74
2022/01/27 11:09:38;;;;;;;;;;;7.80;99.90;;;;;;5098222;28;20022;-74
2022/01/27 11:12:08;;;;;;;;;;;7.90;99.90;;;;;;5116743;28;19931;-73
2022/01/27 11:14:35;;;;;;;;;;;7.90;99.90;;;;;;5116694;28;20014;-72
2022/01/27 11:17:04;;;;;;;;;;;7.90;99.90;;;;;;5116517;28;19982;-72
2022/01/27 11:22:28;;;;;;;;;;;7.90;99.90;;;;;;5116429;28;19976;-71
2022/01/27 11:25:49;;;;;;;;;;;7.90;99.90;;;;;;5116202;28;20332;-73
2022/01/27 11:27:54;;;;;;;;;;;7.90;99.90;;;;;;5116060;28;19931;-73
2022/01/27 11:30:36;;;;;;;;;;;8.00;99.90;;;;;;5116364;28;19923;-73
2022/01/27 11:33:13;;;;;;;;;;;8.00;99.90;;;;;;5116361;28;19976;-73
2022/01/27 11:35:41;;;;;;;;;;;8.00;99.90;;;;;;5116316;28;19924;-75
2022/01/27 11:38:08;;;;;;;;;;;8.00;99.90;;;;;;5116632;28;19931;-76
2022/01/27 11:40:35;;;;;;;;;;;8.10;99.90;;;;;;5116041;28;20022;-76
2022/01/27 11:43:02;;;;;;;;;;;8.10;99.90;;;;;;5098075;28;19930;-74
2022/01/27 11:45:28;;;;;;;;;;;8.10;99.90;;;;;;5115895;28;20036;-73
2022/01/27 11:47:59;;;;;;;;;;;8.10;99.90;;;;;;5097599;28;19987;-72
2022/01/27 11:50:37;;;;;;;;;;;8.20;99.90;;;;;;5115939;28;20019;-74
2022/01/27 11:53:06;;;;;;;;;;;8.20;99.90;;;;;;5115852;28;19946;-73
2022/01/27 11:55:44;;;;;;;;;;;8.20;99.90;;;;;;5115560;28;19954;-77
2022/01/27 11:58:20;;;;;;;;;;;8.30;99.90;;;;;;5115730;28;20443;-73
2022/01/27 12:01:03;;;;;;;;;;;8.40;99.90;;;;;;5115866;28;19924;-78
2022/01/27 12:03:29;;;;;;;;;;;8.40;99.90;;;;;;5096880;28;20232;-73
2022/01/27 12:06:32;;;;;;;;;;;8.40;99.90;;;;;;5097466;28;19940;-73
2022/01/27 12:09:15;;;;;;;;;;;8.40;99.90;;;;;;5032709;28;19932;-73
2022/01/27 12:11:48;;;;;;;;;;;8.50;99.90;;;;;;5015000;28;20059;-75
2022/01/27 12:14:15;;;;;;;;;;;8.50;99.90;;;;;;5016323;28;19929;-73
2022/01/27 12:16:54;;;;;;;;;;;8.50;99.90;;;;;;5032542;28;19933;-73
2022/01/27 12:19:20;;;;;;;;;;;8.90;99.90;;;;;;5032395;28;19939;-74
2022/01/27 12:21:55;;;;;;;;;;;8.50;99.90;;;;;;5016322;28;20044;-73
2022/01/27 12:24:25;;;;;;;;;;;8.50;99.90;;;;;;5032477;28;19925;-77
2022/01/27 12:26:53;;;;;;;;;;;8.50;99.90;;;;;;5032295;28;19933;-73
2022/01/27 12:29:30;;;;;;;;;;;9.60;99.90;;;;;;5032269;28;20403;-74
2022/01/27 12:31:57;;;;;;;;;;;8.40;99.90;;;;;;5032380;28;19929;-73
2022/01/27 12:34:23;;;;;;;;;;;8.50;99.90;;;;;;5016090;28;19932;-74
2022/01/27 12:36:58;;;;;;;;;;;9.00;99.90;;;;;;5032314;28;19929;-74
2022/01/27 12:39:25;;;;;;;;;;;8.50;99.90;;;;;;5032223;28;19936;-74
2022/01/27 12:41:51;;;;;;;;;;;9.60;99.90;;;;;;5037547;28;19979;-72
2022/01/27 12:44:16;;;;;;;;;;;8.50;99.90;;;;;;5114634;28;20027;-72
2022/01/27 12:47:01;;;;;;;;;;;8.50;99.90;;;;;;5114973;28;19930;-73
2022/01/27 12:49:43;;;;;;;;;;;8.50;99.90;;;;;;5114597;28;19974;-73
2022/01/27 12:52:10;;;;;;;;;;;8.50;99.90;;;;;;5114722;28;19928;-77
2022/01/27 12:54:37;;;;;;;;;;;8.40;99.90;;;;;;5114586;28;20271;-73
2022/01/27 12:57:03;;;;;;;;;;;8.40;99.90;;;;;;5096501;28;19924;-73
2022/01/27 12:59:30;;;;;;;;;;;8.40;99.90;;;;;;5114761;28;19931;-74
2022/01/27 13:01:57;;;;;;;;;;;8.40;99.90;;;;;;5114750;28;20014;-76
2022/01/27 13:04:23;;;;;;;;;;;9.40;99.90;;;;;;5114483;28;19930;-73
2022/01/27 13:06:56;;;;;;;;;;;7.40;99.90;;;;;;5114491;28;19924;-75
2022/01/27 13:09:22;;;;;;;;;;;8.30;99.90;;;;;;5114363;28;20397;-75
2022/01/27 13:11:51;;;;;;;;;;;8.90;99.90;;;;;;5114496;28;19930;-73
2022/01/27 13:14:16;;;;;;;;;;;8.40;99.90;;;;;;5114312;28;19938;-73
2022/01/27 13:16:46;;;;;;;;;;;9.40;99.90;;;;;;5114438;28;19924;-73
2022/01/27 13:19:25;;;;;;;;;;;8.40;99.90;;;;;;5114717;28;19965;-74
2022/01/27 13:22:14;;;;;;;;;;;8.30;99.90;;;;;;5096239;28;19924;-75
2022/01/27 13:24:44;;;;;;;;;;;7.20;99.90;;;;;;5114442;28;19924;-74
2022/01/27 13:27:12;;;;;;;;;;;8.40;99.90;;;;;;5113847;28;20340;-76
2022/01/27 13:29:41;;;;;;;;;;;8.40;99.90;;;;;;5114193;28;19924;-73
2022/01/27 13:32:08;;;;;;;;;;;8.40;99.90;;;;;;5114248;28;19978;-77
2022/01/27 13:34:33;;;;;;;;;;;8.40;99.90;;;;;;5096028;28;19924;-76
2022/01/27 13:37:01;;;;;;;;;;;8.40;99.90;;;;;;5114406;28;19923;-74
2022/01/27 13:41:52;;;;;;;;;;;8.40;99.90;;;;;;5114104;28;19974;-77
2022/01/27 13:44:19;;;;;;;;;;;8.40;99.90;;;;;;5114097;28;19931;-77
2022/01/27 13:46:47;;;;;;;;;;;8.40;99.90;;;;;;5114050;28;20406;-72
2022/01/27 13:49:22;;;;;;;;;;;8.40;99.90;;;;;;5113663;28;19924;-72
2022/01/27 13:51:50;;;;;;;;;;;8.40;99.90;;;;;;5114107;28;20374;-73
2022/01/27 13:54:16;;;;;;;;;;;8.40;99.90;;;;;;5114124;28;20026;-74
2022/01/27 13:56:43;;;;;;;;;;;8.40;99.90;;;;;;5113808;28;19931;-73
2022/01/27 13:59:12;;;;;;;;;;;8.40;99.90;;;;;;5114087;28;20017;-78
2022/01/27 14:01:39;;;;;;;;;;;8.40;99.90;;;;;;5095851;28;20276;-75
2022/01/27 14:04:05;;;;;;;;;;;8.40;99.90;;;;;;5113729;28;19930;-73
2022/01/27 14:06:31;;;;;;;;;;;8.40;99.90;;;;;;5114045;28;19979;-74
2022/01/27 14:08:59;;;;;;;;;;;8.30;99.90;;;;;;5114127;28;19930;-77
2022/01/27 14:11:34;;;;;;;;;;;8.30;99.90;;;;;;5113844;28;19928;-75
2022/01/27 14:14:01;;;;;;;;;;;8.40;99.90;;;;;;5113758;28;20403;-76
2022/01/27 14:16:28;;;;;;;;;;;8.40;99.90;;;;;;5113530;28;19928;-73
2022/01/27 14:18:54;;;;;;;;;;;8.40;99.90;;;;;;5113772;28;20302;-73
2022/01/27 14:21:24;;;;;;;;;;;8.40;99.90;;;;;;5079292;28;19927;-73
2022/01/27 14:26:41;;;;;;;;;;;8.20;99.90;;;;;;5095512;28;20057;-75
2022/01/27 14:29:08;;;;;;;;;;;8.30;99.90;;;;;;5113562;28;20299;-73
2022/01/27 14:31:36;;;;;;;;;;;8.70;99.90;;;;;;5113874;28;19924;-74
2022/01/27 14:34:02;;;;;;;;;;;8.20;99.90;;;;;;5113761;28;19924;-71
2022/01/27 14:36:28;;;;;;;;;;;8.20;99.90;;;;;;5116935;28;20400;-74
2022/01/27 14:38:54;;;;;;;;;;;8.20;99.90;;;;;;5099710;28;19928;-76
2022/01/27 14:41:21;;;;;;;;;;;8.20;99.90;;;;;;5116996;28;19930;-74
2022/01/27 14:43:47;;;;;;;;;;;8.20;99.90;;;;;;5099055;28;19931;-73
2022/01/27 14:46:16;;;;;;;;;;;8.10;99.90;;;;;;5117528;28;20004;-73
2022/01/27 14:48:46;;;;;;;;;;;8.00;99.90;;;;;;5116081;28;20018;-76
2022/01/27 14:51:15;;;;;;;;;;;8.00;99.90;;;;;;5117413;28;20314;-72
2022/01/27 14:53:42;;;;;;;;;;;8.10;99.90;;;;;;5098358;28;19967;-72
2022/01/27 14:56:08;;;;;;;;;;;8.00;99.90;;;;;;5117788;27;19923;-72
2022/01/27 14:58:35;;;;;;;;;;;8.00;99.90;;;;;;5116071;28;19927;-75
2022/01/27 15:01:02;;;;;;;;;;;7.90;99.90;;;;;;5117313;28;19994;-75
2022/01/27 15:03:28;;;;;;;;;;;7.90;99.90;;;;;;5116795;28;19924;-76
2022/01/27 15:05:55;;;;;;;;;;;7.80;99.90;;;;;;5116161;28;20397;-75
2022/01/27 15:08:21;;;;;;;;;;;7.70;99.90;;;;;;5098829;28;19924;-74
2022/01/27 15:10:48;;;;;;;;;;;7.70;99.90;;;;;;5116662;28;19967;-74
2022/01/27 15:13:16;;;;;;;;;;;7.70;99.90;;;;;;5098709;28;19927;-79
2022/01/27 15:21:12;;;;;;;;;;;7.60;99.90;;;;;;5116755;28;19953;-74
2022/01/27 15:23:40;;;;;;;;;;;7.50;99.90;;;;;;5116433;28;19977;-73
2022/01/27 15:26:07;;;;;;;;;;;7.50;99.90;;;;;;5116306;28;19923;-74
2022/01/27 15:28:34;;;;;;;;;;;7.50;99.90;;;;;;5097801;28;20375;-73
2022/01/27 15:31:01;;;;;;;;;;;7.50;99.90;;;;;;5098436;28;19930;-75
2022/01/27 15:33:29;;;;;;;;;;;7.40;99.90;;;;;;5116431;28;19981;-78
2022/01/27 15:35:56;;;;;;;;;;;7.40;99.90;;;;;;5116133;28;20302;-77
2022/01/27 15:38:24;;;;;;;;;;;7.40;99.90;;;;;;5098452;28;19924;-74